createdAt,value
2017-12-08T00:07:36.167Z,5.6
2017-12-08T00:18:33.344Z,5.4
2017-12-08T00:28:49.661Z,5.3
2017-12-08T00:39:03.788Z,5.2
2017-12-08T00:49:18.153Z,5.1
2017-12-08T00:59:32.324Z,5.0
2017-12-08T01:09:46.645Z,4.9
2017-12-08T01:20:04.604Z,4.8
2017-12-08T01:30:19.078Z,4.7
2017-12-08T01:40:33.064Z,4.6
2017-12-08T02:01:03.891Z,4.5
2017-12-08T02:11:18.069Z,4.4
2017-12-08T02:21:31.953Z,4.3
2017-12-08T02:31:46.482Z,4.3
2017-12-08T02:42:35.548Z,4.1
2017-12-08T02:52:49.649Z,4.1
2017-12-08T03:03:02.595Z,4.1
2017-12-08T03:13:16.489Z,4.0
2017-12-08T03:23:30.705Z,4.0
2017-12-08T03:33:44.505Z,3.8
2017-12-08T03:43:58.097Z,3.7
2017-12-08T03:54:12.336Z,3.7
2017-12-08T04:04:26.789Z,3.7
2017-12-08T04:14:40.987Z,3.7
2017-12-08T04:24:54.887Z,3.7
2017-12-08T04:35:08.480Z,3.7
2017-12-08T04:45:22.603Z,3.7
2017-12-08T04:55:34.313Z,3.7
2017-12-08T05:05:49.316Z,3.6
2017-12-08T05:16:03.475Z,3.5
2017-12-08T05:26:21.363Z,3.4
2017-12-08T05:37:06.332Z,3.2
2017-12-08T05:47:19.794Z,3.2
2017-12-08T05:58:07.237Z,3.0
2017-12-08T06:08:20.780Z,3.0
2017-12-08T06:18:35.178Z,2.9
2017-12-08T06:28:54.578Z,2.8
2017-12-08T06:39:08.984Z,2.7
2017-12-08T06:49:56.065Z,2.4
2017-12-08T07:00:09.709Z,2.4
2017-12-08T07:10:24.105Z,2.3
2017-12-08T07:20:39.198Z,2.2
2017-12-08T07:30:51.855Z,2.1
2017-12-08T07:41:05.873Z,2.0
2017-12-08T07:51:18.187Z,1.9
2017-12-08T08:01:32.480Z,1.9
2017-12-08T08:11:46.454Z,1.8
2017-12-08T08:22:00.192Z,1.8
2017-12-08T08:32:14.221Z,1.8
2017-12-08T08:42:30.121Z,1.8
2017-12-08T08:52:43.835Z,1.8
2017-12-08T09:03:28.755Z,1.9
2017-12-08T09:14:13.148Z,2.0
2017-12-08T09:24:27.336Z,1.9
2017-12-08T09:34:40.919Z,2.0
2017-12-08T09:45:25.816Z,2.1
2017-12-08T09:55:37.991Z,2.1
2017-12-08T10:05:52.066Z,2.2
2017-12-08T10:16:06.095Z,2.2
2017-12-08T10:26:50.245Z,2.3
2017-12-08T10:37:36.653Z,2.3
2017-12-08T10:47:50.757Z,2.3
2017-12-08T10:58:04.101Z,2.3
2017-12-08T11:08:50.166Z,2.3
2017-12-08T11:19:34.784Z,2.3
2017-12-08T11:30:20.234Z,2.4
2017-12-08T11:41:20.312Z,2.4
2017-12-08T11:51:34.722Z,2.4
2017-12-08T12:02:19.088Z,2.5
2017-12-08T12:12:32.415Z,2.5
2017-12-08T12:23:17.455Z,2.5
2017-12-08T12:33:31.380Z,2.5
2017-12-08T12:44:15.514Z,2.8
2017-12-08T12:55:00.038Z,2.9
2017-12-08T13:05:14.818Z,2.9
2017-12-08T13:15:28.548Z,3.0
2017-12-08T13:25:43.041Z,3.0
2017-12-08T13:35:57.004Z,3.0
2017-12-08T13:46:11.205Z,3.0
2017-12-08T13:56:38.565Z,3.0
2017-12-08T14:07:23.422Z,3.0
2017-12-08T14:18:10.847Z,3.0
2017-12-08T14:28:34.603Z,2.9
2017-12-08T14:38:54.453Z,2.9
2017-12-08T14:49:11.785Z,2.8
2017-12-08T14:59:26.467Z,2.7
2017-12-08T15:09:39.127Z,2.6
2017-12-08T15:20:23.234Z,2.4
2017-12-08T15:31:11.663Z,2.3
2017-12-08T15:41:24.910Z,2.3
2017-12-08T15:51:38.439Z,2.1
2017-12-08T16:02:27.786Z,1.7
2017-12-08T16:12:41.555Z,1.7
2017-12-08T16:23:27.306Z,1.3
2017-12-08T16:34:11.807Z,1.1
2017-12-08T16:44:56.898Z,1.0
2017-12-08T16:55:41.513Z,0.9
2017-12-08T17:05:53.599Z,0.9
2017-12-08T17:16:07.978Z,0.8
2017-12-08T17:26:21.697Z,0.7
2017-12-08T17:36:34.950Z,0.6
2017-12-08T17:46:48.721Z,0.5
2017-12-08T17:57:03.043Z,0.4
2017-12-08T18:07:16.841Z,0.5
2017-12-08T18:17:31.162Z,0.5
2017-12-08T18:27:45.724Z,0.5
2017-12-08T18:37:59.882Z,0.6
2017-12-08T18:48:13.733Z,0.7
2017-12-08T18:58:57.931Z,0.8
2017-12-08T19:09:42.424Z,0.9
2017-12-08T19:19:56.634Z,0.9
2017-12-08T19:30:13.811Z,0.9
2017-12-08T19:40:27.552Z,0.8
2017-12-08T19:50:42.403Z,0.8
2017-12-08T20:00:56.553Z,0.8
2017-12-08T20:11:13.689Z,0.8
2017-12-08T20:21:31.198Z,0.8
2017-12-08T20:32:16.408Z,0.7
2017-12-08T20:42:30.697Z,0.7
2017-12-08T20:52:45.240Z,0.7
2017-12-08T21:02:59.810Z,0.7
2017-12-08T21:13:44.722Z,0.6
2017-12-08T21:24:35.955Z,0.6
2017-12-08T21:34:50.689Z,0.6
2017-12-08T21:45:02.666Z,0.7
2017-12-08T21:55:17.165Z,0.6
2017-12-08T22:05:31.781Z,0.6
2017-12-08T22:15:45.442Z,0.5
2017-12-08T22:26:00.237Z,0.4
2017-12-08T22:36:14.257Z,0.4
2017-12-08T22:46:28.413Z,0.3
2017-12-08T22:56:42.662Z,0.3
2017-12-08T23:06:56.710Z,0.3
2017-12-08T23:17:11.076Z,0.3
2017-12-08T23:27:25.636Z,0.2
2017-12-08T23:37:39.716Z,0.3
2017-12-08T23:47:53.771Z,0.3
2017-12-08T23:58:08.028Z,0.3
